Time;durP1;ratioP1;P1;durP2;ratioP2;P2;SDS_P1;SDS_P2;PMS_P1;PMS_P2;Temp;Humidity;BMP_temperature;BMP_pressure;BME280_temperature;BME280_humidity;BME280_pressure;Samples;Min_cycle;Max_cycle;Signal;HPM_P1;HPM_P2
2022/12/15 00:39:57;;;;;;;10.75;8.48;;;3.70;97.90;;;;;;5092597;28;20677;-68
2022/12/15 00:42:27;;;;;;;10.38;7.97;;;3.70;97.80;;;;;;5096050;28;20188;-68
2022/12/15 00:44:54;;;;;;;10.52;8.20;;;3.70;97.80;;;;;;5096336;28;20195;-68
2022/12/15 00:47:20;;;;;;;12.18;8.80;;;3.70;97.80;;;;;;5096476;28;20269;-68
2022/12/15 01:20:17;;;;;;;8.82;6.65;;;3.60;97.60;;;;;;5095472;28;20192;-68
2022/12/15 01:22:45;;;;;;;9.70;6.95;;;3.60;97.70;;;;;;5095766;28;20279;-68
2022/12/15 01:25:12;;;;;;;8.73;6.50;;;3.60;97.60;;;;;;5095547;28;20188;-68
2022/12/15 01:27:41;;;;;;;10.00;6.63;;;3.60;97.70;;;;;;5095428;28;20189;-68
2022/12/15 01:30:10;;;;;;;9.77;7.65;;;3.60;97.80;;;;;;5095448;28;20250;-68
2022/12/15 01:32:37;;;;;;;8.55;6.25;;;3.60;97.80;;;;;;5095006;28;20221;-68
2022/12/15 01:35:06;;;;;;;11.32;7.65;;;3.60;97.80;;;;;;5095416;28;20192;-68
2022/12/15 01:37:33;;;;;;;9.10;7.20;;;3.60;97.60;;;;;;5095149;28;20280;-68
2022/12/15 01:42:46;;;;;;;9.27;7.47;;;3.60;97.60;;;;;;5095366;28;20196;-68
2022/12/15 01:45:44;;;;;;;9.80;7.15;;;3.60;97.60;;;;;;5095119;28;20189;-69
2022/12/15 01:48:15;;;;;;;10.30;7.22;;;3.60;97.50;;;;;;5094931;28;20688;-69
2022/12/15 01:50:45;;;;;;;10.45;8.05;;;3.50;97.50;;;;;;5095133;28;20185;-69
2022/12/15 01:53:13;;;;;;;11.57;8.75;;;3.50;97.60;;;;;;5094950;28;20190;-69
2022/12/15 01:55:41;;;;;;;11.98;8.18;;;3.60;97.60;;;;;;5095177;28;20492;-69
2022/12/15 01:58:13;;;;;;;9.85;8.40;;;3.50;97.50;;;;;;5094666;28;20242;-69
2022/12/15 02:00:40;;;;;;;12.05;8.15;;;3.50;97.50;;;;;;5094649;28;20189;-69
2022/12/15 02:03:07;;;;;;;10.77;8.70;;;3.50;97.40;;;;;;5094759;28;20240;-69
2022/12/15 02:05:36;;;;;;;8.80;7.65;;;3.40;97.50;;;;;;5094624;28;20260;-69
2022/12/15 02:08:04;;;;;;;8.77;7.85;;;3.40;97.60;;;;;;5094559;28;20242;-68
2022/12/15 02:10:46;;;;;;;8.65;7.00;;;3.40;97.70;;;;;;5094330;28;20246;-69
2022/12/15 02:13:25;;;;;;;11.45;8.90;;;3.40;98.10;;;;;;5094612;28;20203;-68
2022/12/15 02:16:02;;;;;;;10.60;7.82;;;3.40;97.60;;;;;;5094595;28;20197;-69
2022/12/15 02:18:41;;;;;;;10.10;8.05;;;3.40;97.60;;;;;;5094402;28;20195;-69
2022/12/15 02:21:13;;;;;;;10.60;7.72;;;3.40;97.60;;;;;;5094411;28;20527;-69
2022/12/15 02:24:05;;;;;;;9.55;8.18;;;3.40;98.00;;;;;;5094458;28;20222;-69
2022/12/15 02:27:12;;;;;;;10.75;8.77;;;3.40;97.70;;;;;;5094555;28;20189;-69
2022/12/15 02:30:18;;;;;;;12.50;8.75;;;3.40;97.70;;;;;;5094455;28;20185;-69
2022/12/15 02:32:55;;;;;;;12.27;8.98;;;3.40;97.80;;;;;;5094197;28;20221;-69
2022/12/15 02:35:29;;;;;;;10.80;8.77;;;3.40;97.70;;;;;;5094160;28;20188;-69
2022/12/15 02:37:56;;;;;;;11.65;8.27;;;3.30;97.80;;;;;;5094320;28;20224;-69
2022/12/15 02:40:24;;;;;;;11.95;9.82;;;3.40;97.80;;;;;;5094078;28;20224;-69
2022/12/15 02:42:55;;;;;;;9.90;8.30;;;3.40;97.80;;;;;;5093880;28;20245;-69
2022/12/15 02:45:30;;;;;;;11.27;8.30;;;3.40;97.90;;;;;;5093924;28;20180;-69
2022/12/15 02:48:12;;;;;;;11.23;7.80;;;3.40;97.80;;;;;;5093920;28;20583;-69
2022/12/15 02:50:52;;;;;;;9.65;8.63;;;3.40;97.90;;;;;;5094000;28;20272;-69
2022/12/15 02:53:40;;;;;;;11.07;8.13;;;3.30;97.70;;;;;;5093691;28;20193;-69
2022/12/15 02:56:14;;;;;;;10.60;7.70;;;3.30;98.00;;;;;;5093821;28;20197;-69
2022/12/15 02:58:48;;;;;;;11.20;9.20;;;3.30;98.00;;;;;;5093776;28;20236;-69
2022/12/15 03:01:23;;;;;;;11.40;8.13;;;3.30;98.10;;;;;;5093625;28;20257;-69
2022/12/15 03:03:52;;;;;;;11.00;8.20;;;3.40;98.10;;;;;;5092781;28;20674;-69
2022/12/15 03:06:20;;;;;;;10.27;8.73;;;3.40;98.10;;;;;;5093519;28;20561;-69
2022/12/15 03:08:47;;;;;;;11.45;8.60;;;3.30;98.00;;;;;;5093572;28;20250;-69
2022/12/15 03:11:14;;;;;;;15.27;9.05;;;3.40;98.00;;;;;;5093394;28;20213;-69
2022/12/15 03:13:41;;;;;;;9.52;7.97;;;3.30;98.00;;;;;;5093196;28;20673;-69
2022/12/15 03:16:08;;;;;;;10.85;8.25;;;3.30;98.00;;;;;;5093264;28;20189;-69
2022/12/15 03:18:35;;;;;;;13.40;8.75;;;3.30;98.10;;;;;;5093169;28;20650;-69
2022/12/15 03:21:04;;;;;;;12.07;8.90;;;3.40;98.10;;;;;;5093368;28;20239;-69
2022/12/15 03:23:31;;;;;;;10.10;7.40;;;3.40;98.10;;;;;;5093445;28;20221;-68
2022/12/15 03:25:58;;;;;;;12.02;9.32;;;3.40;98.10;;;;;;5093107;28;20231;-69
2022/12/15 03:28:25;;;;;;;13.23;9.13;;;3.40;98.00;;;;;;5093385;28;20185;-69
2022/12/15 03:30:52;;;;;;;10.48;7.93;;;3.30;98.00;;;;;;5093011;28;20216;-69
2022/12/15 03:33:20;;;;;;;10.85;8.88;;;3.30;98.00;;;;;;5093090;28;20223;-69
2022/12/15 03:35:47;;;;;;;12.15;8.80;;;3.30;98.00;;;;;;5093262;28;20203;-68
2022/12/15 03:38:15;;;;;;;9.45;7.50;;;3.30;98.20;;;;;;5092610;28;20558;-69
2022/12/15 03:40:42;;;;;;;10.38;8.45;;;3.40;98.20;;;;;;5093230;28;20539;-69
2022/12/15 03:43:10;;;;;;;11.18;7.93;;;3.40;98.10;;;;;;5093041;28;20188;-69
2022/12/15 03:45:37;;;;;;;10.05;8.20;;;3.40;98.20;;;;;;5092766;28;20193;-69
2022/12/15 03:48:04;;;;;;;10.98;8.13;;;3.40;98.10;;;;;;5092603;28;20277;-69
2022/12/15 03:50:31;;;;;;;9.60;7.75;;;3.40;98.10;;;;;;5093013;28;20779;-69
2022/12/15 03:52:59;;;;;;;10.82;7.63;;;3.40;98.10;;;;;;5093023;28;20238;-69
2022/12/15 03:55:28;;;;;;;10.77;8.00;;;3.40;98.10;;;;;;5092797;28;20196;-69
2022/12/15 03:57:56;;;;;;;9.00;6.78;;;3.40;98.00;;;;;;5093000;28;20197;-69
2022/12/15 04:00:24;;;;;;;9.80;7.68;;;3.40;98.20;;;;;;5092866;28;20193;-69
2022/12/15 04:02:51;;;;;;;8.93;7.10;;;3.40;98.00;;;;;;5092780;28;20627;-69
2022/12/15 04:05:22;;;;;;;9.95;7.57;;;3.40;98.00;;;;;;5092708;28;20217;-69
2022/12/15 04:07:49;;;;;;;10.02;8.98;;;3.40;98.00;;;;;;5092847;28;20236;-69
2022/12/15 04:10:16;;;;;;;10.07;7.63;;;3.40;98.00;;;;;;5092842;28;20189;-69
2022/12/15 04:12:44;;;;;;;10.57;7.75;;;3.40;98.00;;;;;;5092221;28;20247;-69
2022/12/15 04:15:12;;;;;;;9.90;7.80;;;3.40;98.00;;;;;;5092892;28;20189;-69
2022/12/15 04:17:39;;;;;;;8.88;7.15;;;3.40;98.00;;;;;;5096720;28;20185;-69
2022/12/15 04:20:08;;;;;;;9.80;7.03;;;3.40;98.00;;;;;;5096949;28;20210;-69
2022/12/15 04:22:36;;;;;;;8.77;7.32;;;3.40;97.90;;;;;;5096746;28;20192;-69
2022/12/15 05:33:59;;;;;;;15.05;11.50;;;3.30;97.90;;;;;;5095492;28;20196;-69
2022/12/15 05:36:26;;;;;;;19.83;14.15;;;3.30;97.90;;;;;;5095742;28;20196;-69
2022/12/15 05:38:53;;;;;;;18.25;12.77;;;3.30;97.90;;;;;;5095474;28;20201;-69
2022/12/15 05:41:22;;;;;;;16.92;12.50;;;3.30;97.80;;;;;;5095512;28;20185;-69
2022/12/15 05:43:50;;;;;;;18.10;13.05;;;3.30;97.80;;;;;;5095528;28;20219;-69
2022/12/15 05:46:17;;;;;;;16.70;12.63;;;3.30;97.70;;;;;;5095282;28;20197;-69
2022/12/15 05:48:44;;;;;;;22.23;15.68;;;3.30;97.70;;;;;;5095333;28;20185;-69
2022/12/15 05:51:13;;;;;;;19.05;14.00;;;3.30;97.70;;;;;;5095349;28;20196;-69
2022/12/15 05:53:41;;;;;;;20.85;14.98;;;3.20;97.60;;;;;;5094884;28;20674;-69
2022/12/15 05:56:10;;;;;;;17.27;14.25;;;3.20;97.70;;;;;;5094648;28;20704;-69
2022/12/15 05:58:37;;;;;;;22.42;15.05;;;3.20;97.50;;;;;;5094903;28;20193;-69
2022/12/15 06:01:06;;;;;;;20.95;14.98;;;3.20;97.60;;;;;;5095042;28;20278;-69
2022/12/15 06:03:33;;;;;;;19.80;14.43;;;3.20;97.60;;;;;;5094588;28;20221;-68
2022/12/15 06:06:01;;;;;;;18.27;14.27;;;3.20;97.50;;;;;;5095007;28;20177;-69
2022/12/15 06:08:33;;;;;;;19.45;13.23;;;3.20;97.30;;;;;;5094407;28;20193;-69
2022/12/15 06:11:01;;;;;;;20.17;14.77;;;3.20;97.40;;;;;;5097073;28;20185;-69
2022/12/15 06:13:35;;;;;;;21.50;14.60;;;3.20;97.30;;;;;;5113519;28;20223;-69
2022/12/15 06:16:06;;;;;;;19.63;14.85;;;3.20;97.20;;;;;;5107460;28;20537;-69
2022/12/15 06:18:38;;;;;;;23.50;14.70;;;3.20;97.30;;;;;;5094294;28;20193;-68
2022/12/15 06:21:07;;;;;;;19.05;13.57;;;3.10;97.10;;;;;;5094302;28;20196;-70
2022/12/15 06:23:36;;;;;;;19.05;14.63;;;3.10;97.10;;;;;;5094075;28;20189;-69
2022/12/15 06:26:10;;;;;;;19.70;14.98;;;3.10;97.00;;;;;;5093918;28;20219;-69
2022/12/15 06:28:37;;;;;;;19.98;14.57;;;3.10;97.00;;;;;;5104807;28;20598;-69
2022/12/15 06:31:08;;;;;;;22.40;15.82;;;3.10;97.00;;;;;;5114510;28;20576;-69
2022/12/15 06:33:36;;;;;;;21.55;16.55;;;3.10;97.00;;;;;;5113970;28;20216;-68
2022/12/15 06:36:05;;;;;;;21.70;15.75;;;3.10;97.00;;;;;;5114320;28;20189;-68
2022/12/15 06:38:35;;;;;;;21.63;15.80;;;3.10;97.00;;;;;;5113352;28;20188;-69
2022/12/15 06:41:08;;;;;;;28.17;16.77;;;3.10;97.00;;;;;;5114060;28;20692;-69
2022/12/15 06:43:35;;;;;;;19.92;15.82;;;3.10;96.90;;;;;;5108731;28;20185;-69
2022/12/15 06:46:02;;;;;;;23.95;15.93;;;3.10;96.90;;;;;;5094064;28;20189;-69
2022/12/15 06:48:30;;;;;;;23.35;16.40;;;3.10;96.80;;;;;;5093811;28;20274;-69
2022/12/15 06:51:16;;;;;;;25.27;15.38;;;3.10;96.70;;;;;;5091313;28;20202;-69
2022/12/15 06:53:47;;;;;;;24.05;15.90;;;3.00;96.70;;;;;;5092439;28;20679;-69
2022/12/15 06:56:19;;;;;;;21.27;16.48;;;3.00;96.60;;;;;;5102197;28;20198;-69
2022/12/15 06:58:55;;;;;;;22.45;15.73;;;3.00;96.70;;;;;;5113419;28;20192;-69
2022/12/15 07:01:23;;;;;;;27.25;16.90;;;3.00;96.90;;;;;;5112967;28;20226;-69
2022/12/15 07:03:51;;;;;;;20.67;15.05;;;3.00;96.80;;;;;;5112801;28;20630;-69
2022/12/15 07:06:21;;;;;;;22.00;16.60;;;3.00;96.70;;;;;;5093281;28;20216;-69
2022/12/15 07:08:52;;;;;;;22.75;15.40;;;3.00;96.60;;;;;;5095792;28;20204;-69
2022/12/15 07:11:27;;;;;;;24.48;16.90;;;3.00;96.60;;;;;;5102063;28;20181;-69
2022/12/15 07:13:54;;;;;;;23.15;16.90;;;3.00;96.40;;;;;;5110827;28;20211;-69
2022/12/15 07:16:23;;;;;;;23.88;15.73;;;2.90;96.40;;;;;;5114403;28;20292;-70
2022/12/15 07:18:51;;;;;;;24.33;16.38;;;2.90;96.50;;;;;;5113738;28;20253;-69
2022/12/15 07:21:18;;;;;;;21.05;14.90;;;2.90;96.50;;;;;;5093801;28;20189;-69
2022/12/15 07:23:45;;;;;;;22.27;15.73;;;2.90;96.70;;;;;;5093137;28;20193;-69
2022/12/15 07:26:14;;;;;;;21.02;16.15;;;2.90;96.70;;;;;;5093609;28;20597;-69
2022/12/15 07:28:41;;;;;;;22.45;16.13;;;2.90;96.70;;;;;;5093578;28;20192;-69
2022/12/15 07:31:11;;;;;;;22.40;16.00;;;2.90;96.60;;;;;;5093499;28;20189;-69
2022/12/15 07:33:38;;;;;;;22.77;16.58;;;2.90;96.70;;;;;;5093273;28;20256;-69
2022/12/15 07:36:07;;;;;;;23.17;16.67;;;2.80;96.70;;;;;;5093414;28;20189;-69
2022/12/15 07:38:35;;;;;;;25.23;17.05;;;2.90;96.90;;;;;;5093378;28;20284;-69
2022/12/15 07:41:03;;;;;;;20.95;15.98;;;2.90;97.00;;;;;;5093535;28;20189;-69
2022/12/15 07:43:32;;;;;;;22.17;16.45;;;2.90;97.10;;;;;;5093305;28;20193;-69
2022/12/15 07:45:59;;;;;;;25.80;17.17;;;2.90;97.10;;;;;;5093542;28;20220;-69
2022/12/15 07:48:27;;;;;;;24.45;17.20;;;2.90;97.00;;;;;;5093083;28;20320;-69
2022/12/15 07:50:58;;;;;;;24.83;17.73;;;2.90;97.00;;;;;;5093244;28;20197;-69
2022/12/15 07:53:26;;;;;;;25.17;16.73;;;2.90;97.00;;;;;;5093126;28;20224;-69
2022/12/15 07:55:59;;;;;;;22.75;16.55;;;2.90;96.90;;;;;;5093333;28;20220;-69
2022/12/15 07:58:27;;;;;;;23.98;16.73;;;2.90;97.00;;;;;;5093162;28;20188;-70
2022/12/15 08:00:59;;;;;;;23.92;16.48;;;2.90;97.10;;;;;;5093068;28;20258;-69
2022/12/15 08:03:26;;;;;;;24.42;17.77;;;2.90;97.10;;;;;;5093056;28;20185;-69
2022/12/15 08:05:53;;;;;;;28.67;17.73;;;2.90;97.10;;;;;;5093161;28;20280;-69
2022/12/15 08:08:21;;;;;;;26.25;17.67;;;2.90;97.10;;;;;;5093168;28;20196;-69
2022/12/15 08:10:48;;;;;;;22.17;16.90;;;2.90;97.10;;;;;;5093063;28;20207;-69
2022/12/15 08:13:15;;;;;;;21.92;15.65;;;3.00;97.00;;;;;;5093007;28;20252;-70
2022/12/15 08:15:43;;;;;;;30.92;17.77;;;2.90;96.90;;;;;;5093100;28;20242;-69
2022/12/15 08:18:11;;;;;;;25.77;16.95;;;2.90;97.00;;;;;;5092971;28;20193;-69
2022/12/15 08:20:38;;;;;;;25.95;17.55;;;2.90;97.00;;;;;;5092807;28;20258;-69
2022/12/15 08:23:09;;;;;;;26.10;17.60;;;2.90;97.00;;;;;;5092728;28;20254;-69
2022/12/15 08:25:36;;;;;;;27.38;18.55;;;3.00;97.20;;;;;;5092813;28;20289;-69
2022/12/15 08:28:05;;;;;;;25.92;17.20;;;3.00;96.80;;;;;;5092988;28;20275;-69
2022/12/15 08:30:33;;;;;;;28.30;18.83;;;3.00;96.80;;;;;;5092825;28;20640;-69
2022/12/15 08:33:00;;;;;;;24.50;17.13;;;3.00;96.90;;;;;;5092666;28;20220;-69
2022/12/15 08:35:29;;;;;;;24.02;17.33;;;3.10;96.90;;;;;;5093025;28;20280;-69
2022/12/15 08:37:56;;;;;;;24.17;16.58;;;3.00;96.70;;;;;;5092724;28;20189;-69
2022/12/15 08:40:24;;;;;;;29.42;18.10;;;3.00;96.50;;;;;;5092881;28;20318;-69
2022/12/15 08:42:51;;;;;;;25.77;17.13;;;3.10;96.60;;;;;;5092892;28;20200;-69
2022/12/15 08:45:20;;;;;;;23.38;16.70;;;3.10;96.50;;;;;;5092889;28;20197;-69
2022/12/15 08:47:47;;;;;;;24.77;18.17;;;3.10;96.50;;;;;;5092549;28;20246;-69
2022/12/15 08:50:14;;;;;;;25.10;18.75;;;3.10;96.50;;;;;;5092871;28;20243;-69
2022/12/15 08:52:43;;;;;;;26.65;17.95;;;3.10;96.50;;;;;;5092364;28;20303;-69
2022/12/15 08:55:11;;;;;;;26.73;18.25;;;3.10;96.60;;;;;;5092685;28;20202;-69
2022/12/15 08:57:40;;;;;;;22.98;16.60;;;3.20;96.60;;;;;;5092593;28;20296;-69
2022/12/15 09:00:10;;;;;;;28.15;17.52;;;3.20;96.60;;;;;;5092522;28;20189;-69
2022/12/15 09:02:38;;;;;;;27.90;19.00;;;3.20;96.40;;;;;;5094971;28;20208;-69
2022/12/15 09:05:06;;;;;;;25.38;18.77;;;3.20;96.40;;;;;;5096317;28;20256;-69
2022/12/15 09:07:34;;;;;;;22.38;17.10;;;3.20;96.30;;;;;;5096206;28;20193;-69
2022/12/15 09:10:02;;;;;;;32.00;21.52;;;3.20;96.20;;;;;;5096237;28;20193;-69
2022/12/15 09:12:29;;;;;;;25.15;17.90;;;3.20;96.10;;;;;;5096463;28;20624;-69
2022/12/15 09:14:57;;;;;;;27.55;18.17;;;3.20;96.00;;;;;;5096200;28;20189;-69
2022/12/15 09:17:24;;;;;;;28.55;19.73;;;3.20;96.00;;;;;;5096322;28;20697;-69
2022/12/15 09:19:51;;;;;;;29.42;18.90;;;3.20;96.20;;;;;;5095900;28;20189;-69
2022/12/15 09:22:18;;;;;;;25.23;18.80;;;3.20;96.20;;;;;;5095900;28;20238;-69
2022/12/15 09:24:46;;;;;;;30.30;19.50;;;3.20;96.30;;;;;;5095910;28;20204;-69
2022/12/15 09:27:15;;;;;;;66.93;36.88;;;3.30;96.30;;;;;;5095907;28;20218;-69
2022/12/15 09:29:43;;;;;;;36.08;22.27;;;3.30;96.40;;;;;;5095433;28;20189;-69
2022/12/15 09:32:12;;;;;;;32.45;21.52;;;3.40;96.50;;;;;;5095569;28;20185;-69
2022/12/15 09:34:40;;;;;;;26.10;17.65;;;3.40;96.20;;;;;;5095644;28;20220;-69
2022/12/15 09:37:07;;;;;;;22.20;15.23;;;3.40;96.10;;;;;;5095464;28;20221;-69
2022/12/15 09:39:34;;;;;;;29.52;17.73;;;3.50;96.10;;;;;;5095699;28;20201;-69
2022/12/15 09:42:02;;;;;;;27.90;18.75;;;3.50;96.00;;;;;;5095566;28;20189;-69
2022/12/15 09:44:32;;;;;;;25.20;17.05;;;3.60;96.00;;;;;;5095523;28;20258;-69
2022/12/15 09:47:14;;;;;;;26.05;17.55;;;3.60;95.90;;;;;;5095698;28;20193;-69
2022/12/15 09:49:53;;;;;;;25.50;17.02;;;3.70;95.80;;;;;;5095637;28;20581;-70
2022/12/15 09:52:23;;;;;;;26.02;17.88;;;3.60;95.60;;;;;;5095596;28;20650;-70
2022/12/15 09:54:51;;;;;;;29.30;18.58;;;3.70;96.10;;;;;;5095114;28;20223;-69
2022/12/15 09:57:25;;;;;;;24.83;18.45;;;3.70;95.80;;;;;;5095219;28;20193;-69
2022/12/15 10:00:08;;;;;;;32.00;18.55;;;3.70;95.80;;;;;;5095439;28;20309;-69
2022/12/15 10:03:13;;;;;;;29.00;18.52;;;3.80;95.80;;;;;;5094793;28;20196;-69
2022/12/15 10:05:53;;;;;;;33.30;19.15;;;3.80;95.70;;;;;;5088373;28;20706;-69
2022/12/15 10:08:22;;;;;;;27.23;18.02;;;3.80;95.50;;;;;;5095131;28;20196;-69
2022/12/15 10:10:55;;;;;;;31.63;20.88;;;3.90;95.40;;;;;;5094898;28;20189;-69
2022/12/15 10:13:30;;;;;;;30.00;18.55;;;3.90;95.50;;;;;;5094990;28;20248;-69
2022/12/15 10:16:03;;;;;;;23.63;17.80;;;3.90;95.30;;;;;;5095121;28;20599;-69
2022/12/15 10:18:37;;;;;;;25.02;18.40;;;3.90;95.10;;;;;;5095099;28;20200;-69
2022/12/15 10:21:12;;;;;;;25.15;19.20;;;3.90;95.00;;;;;;5094969;28;20201;-69
2022/12/15 10:23:40;;;;;;;29.70;19.33;;;3.90;94.90;;;;;;5094798;28;20207;-69
2022/12/15 10:26:19;;;;;;;25.42;18.52;;;3.90;94.80;;;;;;5094779;28;20258;-70
2022/12/15 10:29:15;;;;;;;32.72;21.13;;;4.00;95.00;;;;;;5094398;28;20189;-69
2022/12/15 10:31:52;;;;;;;28.50;20.63;;;4.00;95.00;;;;;;5094458;28;20181;-69
2022/12/15 10:34:25;;;;;;;32.25;20.45;;;4.00;95.20;;;;;;5094585;28;20557;-69
2022/12/15 10:36:53;;;;;;;30.85;20.33;;;4.00;95.20;;;;;;5094565;28;20254;-69
2022/12/15 10:39:21;;;;;;;28.48;19.23;;;4.10;95.10;;;;;;5093822;28;20196;-69
2022/12/15 10:42:14;;;;;;;28.08;18.63;;;4.10;94.90;;;;;;5094277;28;20254;-69
2022/12/15 10:44:43;;;;;;;29.13;18.85;;;4.10;94.80;;;;;;5094091;28;20197;-69
2022/12/15 10:47:18;;;;;;;30.05;20.70;;;4.10;94.70;;;;;;5094266;28;20239;-69
2022/12/15 10:49:47;;;;;;;30.48;19.83;;;4.10;94.70;;;;;;5094286;28;20192;-70
2022/12/15 10:52:21;;;;;;;29.27;19.95;;;4.20;94.80;;;;;;5094155;28;20658;-70
2022/12/15 10:54:50;;;;;;;30.83;18.25;;;4.30;94.80;;;;;;5093947;28;20225;-69
2022/12/15 10:57:21;;;;;;;33.08;20.92;;;4.20;94.80;;;;;;5093971;28;20721;-69
2022/12/15 10:59:48;;;;;;;27.65;18.73;;;4.20;94.80;;;;;;5093986;28;20193;-70
2022/12/15 11:02:32;;;;;;;30.20;20.20;;;4.20;94.60;;;;;;5093931;28;20692;-69
2022/12/15 11:05:01;;;;;;;34.30;20.48;;;4.30;94.80;;;;;;5093366;28;20228;-69
2022/12/15 11:07:36;;;;;;;26.95;19.50;;;4.30;94.80;;;;;;5093892;28;20739;-69
2022/12/15 11:10:17;;;;;;;29.63;19.23;;;4.40;94.80;;;;;;5093861;28;20253;-69
2022/12/15 11:12:54;;;;;;;32.83;19.35;;;4.40;94.70;;;;;;5093902;28;20189;-69
2022/12/15 11:15:45;;;;;;;28.05;19.35;;;4.30;94.30;;;;;;5093909;28;20189;-69
2022/12/15 11:18:22;;;;;;;28.88;19.05;;;4.40;94.20;;;;;;5091068;28;20193;-69
2022/12/15 11:21:02;;;;;;;29.55;19.08;;;4.30;94.20;;;;;;5092262;28;20678;-69
2022/12/15 11:23:41;;;;;;;32.80;19.65;;;4.30;94.40;;;;;;5092898;28;20561;-69
2022/12/15 11:26:25;;;;;;;26.63;16.92;;;4.30;94.60;;;;;;5092660;28;20199;-70
2022/12/15 11:28:59;;;;;;;24.60;16.63;;;4.30;94.50;;;;;;5093246;28;20192;-69
2022/12/15 11:31:32;;;;;;;29.55;18.83;;;4.30;94.70;;;;;;5093286;28;20203;-69
2022/12/15 11:34:00;;;;;;;33.17;19.80;;;4.20;94.90;;;;;;5104561;28;20315;-69
2022/12/15 11:36:57;;;;;;;24.45;16.52;;;4.20;94.90;;;;;;5113329;28;20650;-70
2022/12/15 11:39:45;;;;;;;26.35;15.85;;;4.20;95.00;;;;;;5108107;28;20668;-70
2022/12/15 11:42:18;;;;;;;26.73;17.80;;;4.20;95.50;;;;;;5093802;28;20185;-70
2022/12/15 11:44:58;;;;;;;28.00;18.08;;;4.30;95.80;;;;;;5094794;28;20189;-69
2022/12/15 11:47:38;;;;;;;27.20;18.05;;;4.30;95.90;;;;;;5113021;28;20223;-69
2022/12/15 11:50:28;;;;;;;32.35;20.40;;;4.40;95.70;;;;;;5094851;28;20185;-69
2022/12/15 11:53:10;;;;;;;30.10;17.45;;;4.40;95.50;;;;;;5101817;28;20272;-69
2022/12/15 11:55:46;;;;;;;30.73;18.60;;;4.50;95.40;;;;;;5113114;28;20213;-69
2022/12/15 11:58:28;;;;;;;43.35;23.20;;;4.50;95.20;;;;;;5110999;28;20229;-70
2022/12/15 12:01:14;;;;;;;35.15;23.23;;;4.50;95.10;;;;;;5092706;28;20195;-70
2022/12/15 12:03:55;;;;;;;30.20;20.52;;;4.50;95.00;;;;;;5093114;28;20267;-70
2022/12/15 12:06:39;;;;;;;33.53;24.40;;;4.60;95.00;;;;;;5092156;28;20189;-69
2022/12/15 12:09:27;;;;;;;37.20;21.80;;;4.50;94.70;;;;;;5099704;28;20192;-69
2022/12/15 12:11:59;;;;;;;41.67;28.13;;;4.60;94.90;;;;;;5113241;28;20247;-69
2022/12/15 12:14:41;;;;;;;36.13;23.40;;;4.50;94.70;;;;;;5102398;28;20280;-69
2022/12/15 12:17:17;;;;;;;38.45;24.75;;;4.60;94.70;;;;;;5092409;28;20193;-70
2022/12/15 12:19:48;;;;;;;36.08;24.88;;;4.60;94.60;;;;;;5092784;28;20218;-69
2022/12/15 12:22:24;;;;;;;37.65;23.30;;;4.60;94.40;;;;;;5093085;28;20238;-69
2022/12/15 12:24:58;;;;;;;32.28;20.90;;;4.50;94.40;;;;;;5092861;28;20189;-69
2022/12/15 12:27:31;;;;;;;31.40;20.38;;;4.60;94.40;;;;;;5105877;28;20188;-69
2022/12/15 12:30:04;;;;;;;34.97;21.73;;;4.50;94.20;;;;;;5108194;28;20277;-69
2022/12/15 12:32:40;;;;;;;31.40;19.83;;;4.50;94.30;;;;;;5106221;28;20557;-69
2022/12/15 12:35:15;;;;;;;25.38;17.65;;;4.50;94.40;;;;;;5112442;28;20207;-70
2022/12/15 12:37:50;;;;;;;25.75;18.60;;;4.50;94.30;;;;;;5115503;28;20187;-69
2022/12/15 12:40:25;;;;;;;30.33;17.30;;;4.40;94.50;;;;;;5116667;28;20192;-70
2022/12/15 12:42:54;;;;;;;24.05;16.52;;;4.40;94.50;;;;;;5117316;28;20520;-69
2022/12/15 12:45:25;;;;;;;29.65;18.48;;;4.40;94.60;;;;;;5111407;28;20212;-69
2022/12/15 12:47:56;;;;;;;33.65;20.25;;;4.50;94.80;;;;;;5096392;28;20189;-69
2022/12/15 12:50:29;;;;;;;35.28;22.30;;;4.50;94.90;;;;;;5109247;28;20226;-70
2022/12/15 12:53:05;;;;;;;38.28;22.38;;;4.50;95.00;;;;;;5116618;28;20207;-69
2022/12/15 12:55:39;;;;;;;42.60;25.00;;;4.50;94.90;;;;;;5116793;28;20760;-70
2022/12/15 12:58:37;;;;;;;40.50;23.67;;;4.50;94.90;;;;;;5116570;28;20279;-69
2022/12/15 13:01:19;;;;;;;40.10;24.10;;;4.50;94.70;;;;;;5116790;28;20188;-69
2022/12/15 13:04:09;;;;;;;47.70;25.58;;;4.50;94.80;;;;;;5116314;28;20258;-69
2022/12/15 13:07:02;;;;;;;41.33;24.48;;;4.50;94.90;;;;;;5116500;28;20188;-69
2022/12/15 13:09:59;;;;;;;45.38;25.08;;;4.50;94.90;;;;;;5116645;28;20189;-69
2022/12/15 13:12:45;;;;;;;39.85;23.02;;;4.40;94.90;;;;;;5099591;28;20189;-70
2022/12/15 13:15:17;;;;;;;43.47;24.38;;;4.50;94.90;;;;;;5116661;28;20216;-69
2022/12/15 13:17:51;;;;;;;39.95;21.35;;;4.40;94.80;;;;;;5116199;28;20294;-70
2022/12/15 13:20:26;;;;;;;37.78;24.10;;;4.50;94.80;;;;;;5116536;28;20192;-69
2022/12/15 13:23:19;;;;;;;34.85;21.48;;;4.40;94.80;;;;;;5115926;28;20277;-69
2022/12/15 13:26:10;;;;;;;37.33;20.45;;;4.40;94.80;;;;;;5116167;28;20199;-69
2022/12/15 13:28:51;;;;;;;34.13;21.08;;;4.40;94.60;;;;;;5116267;28;20266;-69
2022/12/15 13:31:28;;;;;;;34.33;20.73;;;4.40;94.70;;;;;;5116081;28;20270;-69
2022/12/15 13:34:17;;;;;;;36.95;20.73;;;4.30;94.70;;;;;;5116309;28;20212;-69
2022/12/15 13:37:00;;;;;;;38.70;22.75;;;4.30;94.90;;;;;;5115803;28;20267;-69
2022/12/15 13:39:58;;;;;;;35.08;21.95;;;4.30;94.80;;;;;;5113401;28;20196;-68
2022/12/15 13:42:35;;;;;;;37.75;22.48;;;4.30;94.90;;;;;;5116132;28;20275;-70
2022/12/15 13:45:42;;;;;;;32.42;20.20;;;4.20;94.80;;;;;;5115975;28;20192;-69
2022/12/15 13:48:32;;;;;;;35.20;19.40;;;4.20;94.90;;;;;;5065868;28;20188;-68
2022/12/15 13:51:21;;;;;;;29.52;18.10;;;4.20;95.10;;;;;;5115896;28;20709;-69
2022/12/15 13:53:56;;;;;;;35.72;21.45;;;4.20;95.00;;;;;;5115909;28;20196;-69
2022/12/15 13:56:41;;;;;;;32.70;18.40;;;4.20;95.00;;;;;;5115433;28;20191;-70
2022/12/15 13:59:22;;;;;;;32.63;18.77;;;4.20;95.10;;;;;;5115861;28;20188;-69
2022/12/15 14:01:52;;;;;;;31.50;20.50;;;4.20;95.10;;;;;;5115564;28;20192;-70
2022/12/15 14:04:20;;;;;;;38.42;21.65;;;4.20;94.90;;;;;;5115156;28;20278;-69
2022/12/15 14:06:50;;;;;;;45.97;26.25;;;4.10;94.90;;;;;;5115307;28;20193;-69
2022/12/15 14:09:30;;;;;;;36.58;21.20;;;4.20;94.80;;;;;;5114952;28;20199;-70
2022/12/15 14:11:59;;;;;;;41.72;22.30;;;4.10;94.70;;;;;;5115792;28;20195;-69
2022/12/15 14:14:30;;;;;;;36.42;21.50;;;4.10;94.70;;;;;;5115303;28;20597;-69
2022/12/15 14:17:00;;;;;;;29.38;17.85;;;4.10;94.80;;;;;;5115346;28;20173;-69
2022/12/15 14:19:38;;;;;;;34.08;19.25;;;4.10;94.80;;;;;;5115391;28;20196;-69
2022/12/15 14:22:34;;;;;;;33.47;18.95;;;4.00;94.80;;;;;;5115222;28;20180;-69
2022/12/15 14:25:13;;;;;;;36.92;20.27;;;4.00;94.70;;;;;;5115260;28;20276;-69
2022/12/15 14:27:40;;;;;;;35.03;18.95;;;4.00;94.60;;;;;;5114690;28;20223;-69
2022/12/15 14:30:21;;;;;;;33.67;20.55;;;4.00;94.70;;;;;;5114787;28;20184;-69
2022/12/15 14:32:52;;;;;;;37.40;20.48;;;3.90;94.80;;;;;;5115322;28;20284;-69
2022/12/15 14:35:36;;;;;;;37.88;21.77;;;3.90;94.80;;;;;;5114794;28;20220;-69
2022/12/15 14:38:07;;;;;;;37.35;20.38;;;3.90;94.90;;;;;;5112871;28;20598;-69
2022/12/15 14:40:39;;;;;;;38.10;21.70;;;3.90;94.90;;;;;;5114810;28;20196;-69
2022/12/15 14:43:11;;;;;;;34.38;18.73;;;3.90;95.00;;;;;;5114248;28;20236;-69
2022/12/15 14:45:40;;;;;;;31.83;18.45;;;3.90;94.90;;;;;;5114536;28;20219;-69
2022/12/15 14:48:09;;;;;;;31.15;17.85;;;3.80;94.90;;;;;;5114291;28;20188;-69
2022/12/15 14:50:45;;;;;;;34.38;19.15;;;3.80;94.90;;;;;;5114492;28;20185;-69
2022/12/15 14:53:17;;;;;;;34.75;20.00;;;3.80;94.80;;;;;;5114238;28;20192;-68
2022/12/15 14:55:45;;;;;;;38.42;21.38;;;3.80;94.90;;;;;;5114326;28;20215;-69
2022/12/15 14:58:30;;;;;;;34.80;18.73;;;3.80;94.90;;;;;;5114256;28;20223;-68
2022/12/15 15:00:59;;;;;;;33.97;20.20;;;3.80;95.00;;;;;;5113646;28;20188;-68
2022/12/15 15:03:35;;;;;;;34.63;21.30;;;3.80;95.00;;;;;;5114349;28;20246;-69
2022/12/15 15:06:14;;;;;;;36.10;20.95;;;3.80;95.00;;;;;;5113871;28;20200;-69
2022/12/15 15:08:45;;;;;;;33.03;18.27;;;3.70;95.20;;;;;;5114322;28;20264;-69
2022/12/15 15:11:25;;;;;;;37.88;20.05;;;3.70;94.90;;;;;;5114345;28;20224;-69
2022/12/15 15:14:00;;;;;;;37.70;22.42;;;3.60;95.00;;;;;;5114295;28;20199;-69
2022/12/15 15:16:29;;;;;;;40.00;21.10;;;3.60;95.10;;;;;;5113935;28;20192;-69
2022/12/15 15:19:03;;;;;;;35.35;19.98;;;3.50;95.20;;;;;;5114223;28;20192;-69
2022/12/15 15:21:34;;;;;;;39.20;23.92;;;3.50;95.30;;;;;;5113675;28;20267;-69
2022/12/15 15:24:22;;;;;;;36.58;21.05;;;3.50;95.40;;;;;;5114062;28;20634;-69
2022/12/15 15:26:49;;;;;;;45.03;23.02;;;3.50;95.50;;;;;;5113938;28;20223;-69
2022/12/15 15:29:39;;;;;;;36.42;20.80;;;3.50;95.40;;;;;;5113911;28;20641;-69
2022/12/15 15:32:16;;;;;;;35.63;20.90;;;3.50;95.40;;;;;;5114082;28;20184;-69